KJAN

Jackson-Evers International Airport

Airport
ICAO code
KJAN
Summary
ICAO Region
NAM
ICAO Territory
Location

Jackson, Mississippi,

Coordinates
32° 18' 36" N , 90° 4' 31" W
KCC
Airport LOS
Parallel Runway Operation
Metar
Observation
KJAN 071854Z 03005KT 10SM CLR 30/12 A3015 RMK AO2 SLP206 T03000122
Station
Jackson, Jackson International Airport
Date/Time
2022-10-07 18:54:00
Wind direction
30°
Wind speed
05 kts
Lowest cloud amount
n/a
Temperature
30°C
Dew point
12.2°C
Humidity
33%
Weather condition
n/a

Description

Jackson-Evers International Airport is a public-use, joint civil-military (ANG) airport located 9 km east of the central business district of Jackson, Mississippi.

Climatology

Humid “subtropical” climate (Köppen climate classification Cfa) - characterized by hot, humid summers and cool winters. Significant amounts of precipitation occur in all seasons in most areas. Winter rainfall (and sometimes snowfall) is associated with large storms that the westerlies steer from west to east. Most summer rainfall occurs during thunderstorms and occasional tropical storms (hurricanes).

Airport map

Aerial View

SKYbrary Partners:

Safety knowledge contributed by: